createdAt,value
2022-11-12T00:04:14.038Z,9.47
2022-11-12T00:09:36.209Z,8.57
2022-11-12T00:14:58.512Z,9.43
2022-11-12T00:20:21.950Z,9.15
2022-11-12T00:25:44.599Z,9.33
2022-11-12T00:31:06.760Z,8.57
2022-11-12T00:36:30.085Z,9.38
2022-11-12T00:41:52.797Z,8.97
2022-11-12T00:47:16.291Z,7.27
2022-11-12T00:52:38.452Z,7.93
2022-11-12T00:58:00.668Z,7.80
2022-11-12T01:03:22.990Z,7.83
2022-11-12T01:08:48.581Z,8.85
2022-11-12T01:14:24.982Z,9.23
2022-11-12T01:19:47.658Z,10.70
2022-11-12T01:25:09.916Z,9.63
2022-11-12T01:30:32.626Z,11.57
2022-11-12T01:35:55.446Z,11.57
2022-11-12T01:41:34.702Z,11.97
2022-11-12T01:47:01.769Z,12.07
2022-11-12T01:52:48.453Z,11.70
2022-11-12T01:58:21.482Z,13.00
2022-11-12T02:03:44.324Z,13.72
2022-11-12T02:09:08.332Z,12.90
2022-11-12T02:14:31.456Z,14.47
2022-11-12T02:19:55.245Z,14.05
2022-11-12T02:25:22.755Z,14.50
2022-11-12T02:31:00.899Z,15.00
2022-11-12T02:36:23.199Z,14.23
2022-11-12T02:41:45.531Z,13.47
2022-11-12T02:47:07.692Z,13.70
2022-11-12T02:52:30.301Z,13.65
2022-11-12T02:57:53.141Z,11.28
2022-11-12T03:03:15.480Z,11.90
2022-11-12T03:08:37.841Z,11.45
2022-11-12T03:14:00.907Z,11.30
2022-11-12T03:19:23.083Z,10.77
2022-11-12T03:24:45.269Z,9.03
2022-11-12T03:30:07.960Z,8.05
2022-11-12T03:35:30.219Z,7.92
2022-11-12T03:40:52.961Z,9.60
2022-11-12T03:46:15.366Z,8.95
2022-11-12T03:51:38.111Z,9.53
2022-11-12T03:57:00.293Z,9.28
2022-11-12T04:02:23.137Z,8.55
2022-11-12T04:07:59.083Z,8.48
2022-11-12T04:13:31.335Z,9.10
2022-11-12T04:19:13.081Z,9.77
2022-11-12T04:24:57.726Z,8.63
2022-11-12T04:30:20.692Z,8.40
2022-11-12T04:35:44.013Z,8.13
2022-11-12T04:41:24.938Z,8.30
2022-11-12T04:46:47.101Z,8.43
2022-11-12T04:52:09.264Z,7.63
2022-11-12T04:57:31.681Z,8.80
2022-11-12T05:02:55.603Z,8.03
2022-11-12T05:08:21.265Z,8.33
2022-11-12T05:13:43.930Z,8.60
2022-11-12T05:19:06.184Z,9.03
2022-11-12T05:24:41.475Z,9.90
2022-11-12T05:29:52.558Z,8.68
2022-11-12T05:35:14.873Z,9.38
2022-11-12T05:40:37.032Z,9.10
2022-11-12T05:46:00.806Z,8.98
2022-11-12T05:51:23.328Z,8.88
2022-11-12T05:56:46.095Z,9.13
2022-11-12T06:02:08.308Z,8.73
2022-11-12T06:07:30.521Z,8.55
2022-11-12T06:12:52.672Z,8.40
2022-11-12T06:18:14.941Z,8.23
2022-11-12T06:23:37.123Z,7.20
2022-11-12T06:28:59.851Z,7.80
2022-11-12T06:34:22.010Z,7.87
2022-11-12T06:39:44.201Z,8.98
2022-11-12T06:45:06.460Z,8.30
2022-11-12T06:50:28.834Z,8.68
2022-11-12T06:55:50.993Z,10.32
2022-11-12T07:01:21.930Z,8.75
2022-11-12T07:06:46.079Z,9.40
2022-11-12T07:12:08.874Z,8.73
2022-11-12T07:17:31.076Z,8.43
2022-11-12T07:22:53.272Z,8.10
2022-11-12T07:28:15.868Z,7.53
2022-11-12T07:33:38.818Z,7.75
2022-11-12T07:39:03.706Z,8.28
2022-11-12T07:44:26.523Z,7.80
2022-11-12T07:49:48.770Z,9.05
2022-11-12T07:55:11.451Z,8.48
2022-11-12T08:00:34.139Z,9.50
2022-11-12T08:05:57.354Z,9.08
2022-11-12T08:11:21.927Z,10.13
2022-11-12T08:16:44.505Z,10.95
2022-11-12T08:22:07.224Z,9.53
2022-11-12T08:27:30.027Z,11.37
2022-11-12T08:32:52.194Z,10.30
2022-11-12T08:38:19.513Z,10.75
2022-11-12T08:43:41.921Z,11.12
2022-11-12T08:49:04.085Z,9.78
2022-11-12T08:54:26.264Z,11.10
2022-11-12T08:59:48.464Z,10.15
2022-11-12T09:05:10.832Z,9.95
2022-11-12T09:10:34.156Z,11.03
2022-11-12T09:15:57.811Z,11.18
2022-11-12T09:21:25.091Z,9.53
2022-11-12T09:26:49.078Z,9.03
2022-11-12T09:32:11.339Z,8.80
2022-11-12T09:37:34.509Z,9.35
2022-11-12T09:42:58.688Z,8.85
2022-11-12T09:48:29.428Z,8.95
2022-11-12T09:54:05.399Z,8.38
2022-11-12T09:59:30.960Z,9.25
2022-11-12T10:05:03.482Z,8.10
2022-11-12T10:10:49.296Z,10.00
2022-11-12T10:16:44.109Z,9.45
2022-11-12T10:22:14.112Z,9.55
2022-11-12T10:27:44.532Z,8.57
2022-11-12T10:33:07.407Z,8.90
2022-11-12T10:38:33.407Z,8.83
2022-11-12T10:43:59.144Z,9.05
2022-11-12T10:49:31.775Z,9.40
2022-11-12T10:54:57.057Z,9.60
2022-11-12T11:00:32.135Z,9.00
2022-11-12T11:06:12.888Z,8.70
2022-11-12T11:11:56.740Z,9.00
2022-11-12T11:17:23.574Z,8.97
2022-11-12T11:23:02.694Z,8.60
2022-11-12T11:28:48.132Z,8.67
2022-11-12T11:34:18.355Z,8.43
2022-11-12T11:39:54.079Z,8.50
2022-11-12T11:45:32.837Z,9.08
2022-11-12T11:51:02.439Z,8.90
2022-11-12T11:56:38.522Z,8.93
2022-11-12T12:02:33.508Z,11.40
2022-11-12T12:08:09.222Z,8.60
2022-11-12T12:13:51.323Z,9.07
2022-11-12T12:19:36.481Z,8.18
2022-11-12T12:25:06.721Z,8.40
2022-11-12T12:30:50.623Z,8.33
2022-11-12T12:36:43.983Z,7.47
2022-11-12T12:47:55.811Z,8.07
2022-11-12T12:53:37.255Z,8.03
2022-11-12T12:59:07.310Z,7.37
2022-11-12T13:09:45.889Z,7.40
2022-11-12T13:15:27.392Z,7.20
2022-11-12T13:21:12.975Z,7.10
2022-11-12T13:26:59.551Z,7.90
2022-11-12T13:32:49.123Z,6.37
2022-11-12T13:38:23.847Z,6.92
2022-11-12T13:43:55.192Z,7.58
2022-11-12T13:49:25.968Z,7.72
2022-11-12T13:54:57.315Z,8.68
2022-11-12T14:00:39.170Z,7.85
2022-11-12T14:06:05.718Z,7.75
2022-11-12T14:11:56.831Z,8.03
2022-11-12T14:17:51.037Z,7.22
2022-11-12T14:23:24.896Z,8.03
2022-11-12T14:28:50.076Z,7.45
2022-11-12T14:34:37.672Z,8.43
2022-11-12T14:40:00.662Z,8.83
2022-11-12T14:45:34.142Z,10.08
2022-11-12T14:50:54.840Z,10.60
2022-11-12T14:56:21.244Z,10.53
2022-11-12T15:02:29.438Z,10.78
2022-11-12T15:08:04.361Z,11.20
2022-11-12T15:13:47.514Z,11.67
2022-11-12T15:19:30.969Z,10.97
2022-11-12T15:24:55.276Z,11.67
2022-11-12T15:30:32.578Z,11.50
2022-11-12T15:35:58.395Z,11.37
2022-11-12T15:41:30.084Z,11.00
2022-11-12T15:46:52.335Z,12.30
2022-11-12T15:52:14.529Z,11.57
2022-11-12T15:57:40.901Z,12.00
2022-11-12T16:03:18.751Z,11.87
2022-11-12T16:08:40.915Z,11.83
2022-11-12T16:14:03.564Z,12.47
2022-11-12T16:19:31.896Z,12.68
2022-11-12T16:24:55.205Z,13.50
2022-11-12T16:30:24.857Z,15.05
2022-11-12T16:35:48.607Z,14.93
2022-11-12T16:41:11.406Z,15.20
2022-11-12T16:46:41.170Z,14.78
2022-11-12T16:57:23.511Z,15.32
2022-11-12T17:02:49.508Z,15.63
2022-11-12T17:08:11.982Z,15.83
2022-11-12T17:13:34.744Z,16.10
2022-11-12T17:18:58.695Z,14.98
2022-11-12T17:24:21.957Z,15.50
2022-11-12T17:29:44.204Z,15.53
2022-11-12T17:35:06.802Z,15.32
2022-11-12T17:40:29.337Z,15.78
2022-11-12T17:45:58.667Z,17.23
2022-11-12T17:51:27.583Z,16.40
2022-11-12T17:56:49.817Z,14.70
2022-11-12T18:02:12.605Z,15.30
2022-11-12T18:07:35.987Z,15.30
2022-11-12T18:12:59.348Z,15.13
2022-11-12T18:18:21.983Z,15.55
2022-11-12T18:23:45.055Z,15.83
2022-11-12T18:29:12.861Z,17.52
2022-11-12T18:34:35.050Z,15.98
2022-11-12T18:39:57.263Z,17.15
2022-11-12T18:45:20.300Z,17.50
2022-11-12T18:50:43.071Z,17.77
2022-11-12T18:56:08.550Z,18.30
2022-11-12T19:01:33.553Z,18.87
2022-11-12T19:06:56.111Z,18.35
2022-11-12T19:12:18.516Z,19.00
2022-11-12T19:17:41.217Z,18.23
2022-11-12T19:23:04.101Z,20.77
2022-11-12T19:28:27.498Z,19.25
2022-11-12T19:33:51.610Z,20.32
2022-11-12T19:39:15.073Z,19.82
2022-11-12T19:44:37.812Z,20.00
2022-11-12T19:50:00.408Z,21.65
2022-11-12T19:55:23.480Z,17.52
2022-11-12T20:00:46.912Z,20.72
2022-11-12T20:06:15.265Z,20.90
2022-11-12T20:11:37.442Z,21.93
2022-11-12T20:16:59.712Z,21.55
2022-11-12T20:22:22.091Z,21.37
2022-11-12T20:27:44.769Z,21.15
2022-11-12T20:33:07.013Z,22.93
2022-11-12T20:38:30.746Z,23.00
2022-11-12T20:43:53.210Z,23.07
2022-11-12T20:49:15.865Z,23.42
2022-11-12T20:54:38.195Z,23.93
2022-11-12T21:00:00.389Z,23.12
2022-11-12T21:05:22.812Z,23.92
2022-11-12T21:10:45.049Z,24.50
2022-11-12T21:16:07.499Z,24.93
2022-11-12T21:21:33.941Z,25.80
2022-11-12T21:26:56.399Z,24.63
2022-11-12T21:32:18.676Z,24.90
2022-11-12T21:37:41.523Z,25.60
2022-11-12T21:43:03.776Z,24.25
2022-11-12T21:48:26.556Z,24.87
2022-11-12T21:53:49.085Z,25.40
2022-11-12T21:59:12.401Z,25.35
2022-11-12T22:04:34.587Z,26.17
2022-11-12T22:09:57.265Z,25.50
2022-11-12T22:15:24.157Z,25.87
2022-11-12T22:20:43.543Z,24.87
2022-11-12T22:26:07.312Z,24.23
2022-11-12T22:31:33.810Z,24.20
2022-11-12T22:36:56.152Z,25.27
2022-11-12T22:42:18.342Z,25.20
2022-11-12T22:47:40.556Z,24.05
2022-11-12T22:53:03.869Z,24.23
2022-11-12T22:58:26.406Z,24.65
2022-11-12T23:03:50.097Z,25.25
2022-11-12T23:09:13.020Z,24.15
2022-11-12T23:14:35.286Z,23.57
2022-11-12T23:19:58.048Z,24.00
2022-11-12T23:25:21.191Z,24.47
2022-11-12T23:30:43.655Z,24.85
2022-11-12T23:36:12.790Z,24.55
2022-11-12T23:41:38.523Z,25.00
2022-11-12T23:47:00.747Z,25.25
2022-11-12T23:52:22.989Z,24.67
2022-11-12T23:57:45.177Z,24.53
